createdAt,value
2023-04-15T00:00:56.567Z,66.53
2023-04-15T00:03:23.290Z,69.32
2023-04-15T00:05:50.095Z,68.00
2023-04-15T00:08:16.607Z,62.95
2023-04-15T00:10:43.082Z,67.35
2023-04-15T00:13:09.842Z,61.17
2023-04-15T00:15:36.367Z,57.60
2023-04-15T00:18:02.901Z,61.97
2023-04-15T00:20:29.349Z,59.38
2023-04-15T00:22:55.857Z,57.28
2023-04-15T00:25:22.336Z,65.40
2023-04-15T00:27:48.815Z,66.05
2023-04-15T00:30:15.344Z,57.65
2023-04-15T00:32:41.881Z,60.90
2023-04-15T00:35:08.816Z,55.10
2023-04-15T00:37:35.312Z,55.30
2023-04-15T00:40:01.800Z,58.35
2023-04-15T00:42:28.778Z,67.70
2023-04-15T00:44:55.265Z,71.55
2023-04-15T00:47:21.861Z,61.58
2023-04-15T00:49:48.347Z,53.85
2023-04-15T00:52:14.968Z,34.35
2023-04-15T00:54:41.458Z,34.45
2023-04-15T00:57:08.029Z,34.22
2023-04-15T00:59:34.671Z,47.15
2023-04-15T01:02:01.360Z,51.03
2023-04-15T01:04:28.031Z,48.30
2023-04-15T01:06:54.652Z,63.03
2023-04-15T01:09:21.161Z,56.47
2023-04-15T01:11:47.813Z,43.78
2023-04-15T01:14:14.348Z,45.55
2023-04-15T01:16:40.879Z,41.20
2023-04-15T01:19:10.725Z,46.90
2023-04-15T01:21:37.836Z,39.45
2023-04-15T01:24:10.644Z,47.05
2023-04-15T01:26:41.123Z,57.90
2023-04-15T01:29:07.703Z,45.35
2023-04-15T01:31:34.360Z,42.78
2023-04-15T01:34:00.947Z,49.33
2023-04-15T01:36:27.862Z,45.65
2023-04-15T01:38:55.871Z,43.50
2023-04-15T01:41:28.153Z,51.08
2023-04-15T01:43:55.029Z,61.50
2023-04-15T01:46:21.634Z,55.47
2023-04-15T01:48:48.152Z,57.80
2023-04-15T01:51:14.675Z,55.78
2023-04-15T01:53:41.168Z,53.80
2023-04-15T01:56:07.899Z,41.35
2023-04-15T01:58:34.424Z,44.05
2023-04-15T02:01:00.934Z,39.28
2023-04-15T02:03:29.037Z,27.92
2023-04-15T02:05:55.653Z,26.20
2023-04-15T02:08:22.277Z,28.42
2023-04-15T02:10:48.764Z,26.98
2023-04-15T02:13:15.248Z,32.28
2023-04-15T02:15:47.301Z,23.70
2023-04-15T02:18:13.906Z,28.45
2023-04-15T02:20:40.417Z,31.17
2023-04-15T02:23:06.901Z,42.75
2023-04-15T02:25:33.442Z,36.28
2023-04-15T02:27:59.935Z,39.20
2023-04-15T02:30:26.398Z,39.85
2023-04-15T02:32:52.989Z,44.33
2023-04-15T02:35:19.560Z,35.88
2023-04-15T02:37:46.040Z,34.28
2023-04-15T02:40:13.350Z,40.50
2023-04-15T02:45:07.208Z,32.85
2023-04-15T02:47:34.985Z,35.75
2023-04-15T02:50:03.353Z,35.15
2023-04-15T02:52:29.859Z,32.38
2023-04-15T02:54:56.415Z,32.10
2023-04-15T02:57:23.196Z,35.92
2023-04-15T02:59:49.664Z,34.15
2023-04-15T03:02:16.316Z,34.72
2023-04-15T03:04:42.960Z,38.30
2023-04-15T03:07:09.464Z,34.58
2023-04-15T03:09:35.960Z,33.28
2023-04-15T03:12:03.055Z,32.17
2023-04-15T03:14:29.599Z,45.63
2023-04-15T03:16:56.127Z,40.65
2023-04-15T03:19:22.743Z,39.17
2023-04-15T03:21:49.210Z,31.77
2023-04-15T03:24:15.808Z,34.85
2023-04-15T03:26:42.311Z,33.67
2023-04-15T03:29:08.882Z,34.92
2023-04-15T03:31:35.422Z,30.45
2023-04-15T03:34:01.932Z,29.83
2023-04-15T03:36:29.776Z,28.77
2023-04-15T03:38:56.273Z,26.17
2023-04-15T03:41:22.721Z,46.58
2023-04-15T03:43:49.215Z,30.80
2023-04-15T03:46:15.783Z,30.63
2023-04-15T03:48:42.288Z,27.15
2023-04-15T03:51:08.752Z,23.40
2023-04-15T03:53:35.288Z,34.70
2023-04-15T03:56:01.823Z,60.33
2023-04-15T03:58:28.416Z,50.92
2023-04-15T04:00:54.950Z,37.90
2023-04-15T04:03:21.712Z,25.15
2023-04-15T04:05:48.557Z,16.05
2023-04-15T04:08:15.075Z,15.55
2023-04-15T04:10:41.904Z,17.42
2023-04-15T04:13:08.679Z,13.35
2023-04-15T04:15:35.237Z,17.20
2023-04-15T04:18:01.923Z,16.98
2023-04-15T04:20:28.461Z,18.00
2023-04-15T04:22:54.958Z,20.73
2023-04-15T04:25:21.428Z,18.08
2023-04-15T04:27:47.890Z,27.25
2023-04-15T04:30:14.401Z,26.17
2023-04-15T04:32:40.967Z,31.98
2023-04-15T04:35:07.926Z,22.80
2023-04-15T04:37:34.411Z,25.65
2023-04-15T04:40:00.900Z,23.05
2023-04-15T04:42:27.520Z,20.83
2023-04-15T04:44:54.057Z,25.52
2023-04-15T04:47:20.637Z,27.77
2023-04-15T04:49:47.261Z,23.35
2023-04-15T04:52:13.840Z,19.30
2023-04-15T04:54:40.352Z,28.38
2023-04-15T04:57:06.833Z,16.73
2023-04-15T04:59:33.661Z,17.75
2023-04-15T05:02:00.330Z,16.95
2023-04-15T05:04:26.862Z,17.33
2023-04-15T05:06:53.382Z,25.73
2023-04-15T05:09:19.867Z,20.13
2023-04-15T05:11:46.349Z,34.67
2023-04-15T05:14:12.858Z,36.60
2023-04-15T05:16:39.366Z,34.55
2023-04-15T05:19:05.885Z,48.05
2023-04-15T05:21:32.400Z,40.65
2023-04-15T05:23:58.994Z,25.88
2023-04-15T05:26:25.469Z,27.40
2023-04-15T05:28:51.983Z,31.30
2023-04-15T05:31:18.605Z,24.52
2023-04-15T05:33:45.211Z,26.67
2023-04-15T05:36:11.706Z,41.55
2023-04-15T05:38:38.207Z,46.13
2023-04-15T05:41:04.798Z,49.33
2023-04-15T05:43:31.294Z,42.03
2023-04-15T05:45:57.825Z,43.22
2023-04-15T05:48:24.334Z,41.10
2023-04-15T05:50:50.897Z,51.22
2023-04-15T05:53:17.464Z,42.95
2023-04-15T05:55:43.986Z,36.95
2023-04-15T05:58:10.482Z,40.92
2023-04-15T06:00:37.096Z,43.88
2023-04-15T06:03:03.921Z,42.78
2023-04-15T06:05:30.496Z,24.08
2023-04-15T06:07:56.979Z,21.08
2023-04-15T06:10:23.440Z,20.77
2023-04-15T06:12:49.976Z,19.13
2023-04-15T06:15:16.489Z,11.50
2023-04-15T06:17:43.054Z,10.57
2023-04-15T06:20:10.123Z,17.05
2023-04-15T06:22:37.618Z,22.27
2023-04-15T06:25:04.542Z,13.27
2023-04-15T06:27:31.060Z,10.20
2023-04-15T06:29:57.550Z,12.80
2023-04-15T06:32:24.049Z,5.75
2023-04-15T06:34:50.552Z,11.45
2023-04-15T06:37:17.077Z,7.10
2023-04-15T06:39:43.578Z,7.15
2023-04-15T06:42:11.165Z,9.50
2023-04-15T06:44:37.952Z,8.32
2023-04-15T06:47:04.425Z,8.68
2023-04-15T06:49:30.928Z,4.80
2023-04-15T06:51:57.467Z,6.65
2023-04-15T06:54:23.951Z,1.98
2023-04-15T06:56:50.457Z,12.02
2023-04-15T06:59:16.955Z,18.08
2023-04-15T07:01:44.921Z,6.60
2023-04-15T07:04:11.419Z,7.90
2023-04-15T07:06:37.977Z,8.35
2023-04-15T07:09:04.719Z,5.97
2023-04-15T07:11:31.542Z,4.63
2023-04-15T07:13:58.422Z,4.10
2023-04-15T07:16:25.760Z,6.82
2023-04-15T07:18:53.110Z,7.05
2023-04-15T07:21:19.619Z,6.85
2023-04-15T07:23:46.110Z,11.80
2023-04-15T07:26:12.770Z,10.77
2023-04-15T07:28:39.274Z,14.18
2023-04-15T07:31:05.805Z,3.67
2023-04-15T07:33:32.454Z,1.48
2023-04-15T07:35:58.959Z,2.97
2023-04-15T07:38:26.550Z,3.38
2023-04-15T07:40:53.157Z,8.93
2023-04-15T07:43:19.688Z,8.50
2023-04-15T07:45:46.182Z,2.67
2023-04-15T07:48:12.728Z,1.30
2023-04-15T07:50:39.509Z,3.90
2023-04-15T07:53:07.258Z,4.47
2023-04-15T07:55:33.808Z,4.90
2023-04-15T07:58:00.337Z,4.03
2023-04-15T08:00:26.862Z,3.25
2023-04-15T08:02:53.616Z,10.25
2023-04-15T08:05:20.365Z,3.45
2023-04-15T08:10:13.259Z,2.90
2023-04-15T08:12:39.852Z,4.03
2023-04-15T08:15:06.914Z,4.55
2023-04-15T08:17:33.523Z,6.22
2023-04-15T08:22:26.471Z,5.78
2023-04-15T08:24:54.193Z,18.88
2023-04-15T08:27:20.690Z,4.15
2023-04-15T08:29:47.192Z,14.38
2023-04-15T08:32:13.750Z,54.72
2023-04-15T08:34:40.273Z,9.48
2023-04-15T08:37:06.786Z,32.65
2023-04-15T08:39:33.289Z,14.50
2023-04-15T08:42:04.412Z,6.47
2023-04-15T08:44:34.808Z,24.92
2023-04-15T08:47:02.342Z,6.55
2023-04-15T08:49:29.811Z,5.78
2023-04-15T08:51:59.261Z,47.22
2023-04-15T08:54:26.909Z,12.77
2023-04-15T08:56:53.693Z,14.13
2023-04-15T08:59:21.632Z,11.25
2023-04-15T09:01:49.998Z,10.77
2023-04-15T09:04:17.551Z,9.35
2023-04-15T09:06:44.160Z,6.85
2023-04-15T09:11:37.060Z,9.25
2023-04-15T09:14:03.566Z,6.47
2023-04-15T09:16:30.075Z,3.58
2023-04-15T09:18:56.612Z,3.80
2023-04-15T09:21:24.540Z,3.53
2023-04-15T09:23:56.778Z,3.88
2023-04-15T09:26:36.802Z,5.18
2023-04-15T09:29:11.140Z,5.32
2023-04-15T09:31:37.687Z,5.70
2023-04-15T09:34:04.604Z,2.83
2023-04-15T09:36:58.745Z,5.90
2023-04-15T09:39:25.225Z,7.70
2023-04-15T09:42:07.834Z,6.40
2023-04-15T09:44:34.412Z,3.65
2023-04-15T09:47:01.031Z,2.83
2023-04-15T09:52:05.616Z,4.03
2023-04-15T09:54:34.183Z,3.78
2023-04-15T09:57:08.938Z,3.70
2023-04-15T09:59:35.797Z,3.17
2023-04-15T10:02:04.912Z,3.33
2023-04-15T10:04:35.195Z,6.40
2023-04-15T10:07:03.871Z,11.65
2023-04-15T10:09:31.089Z,6.53
2023-04-15T10:11:57.577Z,4.43
2023-04-15T10:16:56.324Z,3.38
2023-04-15T10:19:27.597Z,3.88
2023-04-15T10:21:55.338Z,5.15
2023-04-15T10:24:22.881Z,6.88
2023-04-15T10:26:51.041Z,4.45
2023-04-15T10:29:17.868Z,8.20
2023-04-15T10:31:44.921Z,17.85
2023-04-15T10:34:13.067Z,7.15
2023-04-15T10:36:39.738Z,6.03
2023-04-15T10:39:41.939Z,6.80
2023-04-15T10:42:16.419Z,8.70
2023-04-15T10:44:44.963Z,6.93
2023-04-15T10:47:14.168Z,3.88
2023-04-15T10:49:49.087Z,5.75
2023-04-15T10:52:17.077Z,5.18
2023-04-15T10:54:44.578Z,7.30
2023-04-15T10:57:16.855Z,5.38
2023-04-15T11:00:16.051Z,6.70
2023-04-15T11:02:55.067Z,4.10
2023-04-15T11:05:43.273Z,5.65
2023-04-15T11:08:10.867Z,2.85
2023-04-15T11:10:37.346Z,8.20
2023-04-15T11:15:41.104Z,2.60
2023-04-15T11:18:21.871Z,4.63
2023-04-15T11:20:53.875Z,10.73
2023-04-15T11:23:28.473Z,3.22
2023-04-15T11:25:56.062Z,3.03
2023-04-15T11:28:25.972Z,4.07
2023-04-15T11:30:52.576Z,4.82
2023-04-15T11:33:19.118Z,5.53
2023-04-15T11:35:45.666Z,20.52
2023-04-15T11:38:14.231Z,9.35
2023-04-15T11:40:44.539Z,16.00
2023-04-15T11:43:17.517Z,3.95
2023-04-15T11:45:57.671Z,4.13
2023-04-15T11:48:31.020Z,8.32
2023-04-15T11:51:07.524Z,9.80
2023-04-15T11:53:36.751Z,14.65
2023-04-15T11:56:03.288Z,6.57
2023-04-15T12:01:01.022Z,3.60
2023-04-15T12:03:28.822Z,7.15
2023-04-15T12:06:15.107Z,5.03
2023-04-15T12:08:59.474Z,2.65
2023-04-15T12:11:34.687Z,2.38
2023-04-15T12:14:31.486Z,5.97
2023-04-15T12:17:02.725Z,9.55
2023-04-15T12:19:40.174Z,20.17
2023-04-15T12:22:13.538Z,6.75
2023-04-15T12:24:40.419Z,6.45
2023-04-15T12:27:09.080Z,6.22
2023-04-15T12:29:37.473Z,6.20
2023-04-15T12:32:08.263Z,3.65
2023-04-15T12:34:37.150Z,16.70
2023-04-15T12:37:05.977Z,4.35
2023-04-15T12:39:41.279Z,5.07
2023-04-15T12:42:08.585Z,6.20
2023-04-15T12:44:36.423Z,7.38
2023-04-15T12:47:03.258Z,18.98
2023-04-15T12:49:32.570Z,28.38
2023-04-15T12:52:00.790Z,6.13
2023-04-15T12:54:28.171Z,6.30
2023-04-15T12:56:54.963Z,4.15
2023-04-15T12:59:21.892Z,4.15
2023-04-15T13:01:48.852Z,5.25
2023-04-15T13:04:16.266Z,5.35
2023-04-15T13:06:43.256Z,4.88
2023-04-15T13:09:09.882Z,7.78
2023-04-15T13:14:04.820Z,5.75
2023-04-15T13:16:32.645Z,5.03
2023-04-15T13:19:00.112Z,6.47
2023-04-15T13:21:26.639Z,8.77
2023-04-15T13:23:53.230Z,13.88
2023-04-15T13:28:46.361Z,4.35
2023-04-15T13:31:12.902Z,2.58
2023-04-15T13:33:39.491Z,5.20
2023-04-15T13:38:32.619Z,6.38
2023-04-15T13:43:25.536Z,4.55
2023-04-15T13:45:52.053Z,5.65
2023-04-15T13:48:18.603Z,7.60
2023-04-15T13:50:45.064Z,3.28
2023-04-15T13:53:12.549Z,4.60
2023-04-15T13:55:39.142Z,4.88
2023-04-15T13:58:05.664Z,3.25
2023-04-15T14:00:32.169Z,1.92
2023-04-15T14:02:58.772Z,6.13
2023-04-15T14:05:25.588Z,4.50
2023-04-15T14:10:18.568Z,8.30
2023-04-15T14:15:11.555Z,5.75
2023-04-15T14:20:07.623Z,5.90
2023-04-15T14:22:34.158Z,6.50
2023-04-15T14:27:27.089Z,8.75
2023-04-15T14:32:20.471Z,8.50
2023-04-15T14:34:46.954Z,7.88
2023-04-15T14:37:13.457Z,7.00
2023-04-15T14:39:40.022Z,7.20
2023-04-15T14:44:32.904Z,30.25
2023-04-15T14:46:59.544Z,8.43
2023-04-15T14:49:27.099Z,5.25
2023-04-15T14:51:53.609Z,27.05
2023-04-15T14:54:21.909Z,7.07
2023-04-15T14:56:48.892Z,6.00
2023-04-15T14:59:15.411Z,6.30
2023-04-15T15:01:42.079Z,4.72
2023-04-15T15:04:10.714Z,3.55
2023-04-15T15:06:37.329Z,5.25
2023-04-15T15:09:04.511Z,5.90
2023-04-15T15:11:31.209Z,3.35
2023-04-15T15:13:57.728Z,8.10
2023-04-15T15:16:25.141Z,5.65
2023-04-15T15:18:51.677Z,5.45
2023-04-15T15:21:18.188Z,4.55
2023-04-15T15:23:45.250Z,6.15
2023-04-15T15:26:12.331Z,10.20
2023-04-15T15:28:38.817Z,8.05
2023-04-15T15:31:05.551Z,20.33
2023-04-15T15:33:32.100Z,15.40
2023-04-15T15:35:58.844Z,20.80
2023-04-15T15:38:25.386Z,9.10
2023-04-15T15:40:51.860Z,18.73
2023-04-15T15:43:18.387Z,29.63
2023-04-15T15:45:45.303Z,28.38
2023-04-15T15:48:11.905Z,18.60
2023-04-15T15:53:04.832Z,9.88
2023-04-15T15:55:31.313Z,7.75
2023-04-15T15:57:57.802Z,8.43
2023-04-15T16:00:24.343Z,13.95
2023-04-15T16:03:05.972Z,8.50
2023-04-15T16:05:33.621Z,13.48
2023-04-15T16:08:00.211Z,13.30
2023-04-15T16:10:26.772Z,16.15
2023-04-15T16:12:53.349Z,36.95
2023-04-15T16:15:19.953Z,24.67
2023-04-15T16:17:46.557Z,17.60
2023-04-15T16:20:13.125Z,10.73
2023-04-15T16:22:39.659Z,7.30
2023-04-15T16:25:06.648Z,32.13
2023-04-15T16:27:33.850Z,25.90
2023-04-15T16:30:01.627Z,45.30
2023-04-15T16:32:28.239Z,37.85
2023-04-15T16:34:55.444Z,54.42
2023-04-15T16:37:22.040Z,65.03
2023-04-15T16:39:48.549Z,45.38
2023-04-15T16:42:15.076Z,159.02
2023-04-15T16:44:41.552Z,90.82
2023-04-15T16:47:08.039Z,98.05
2023-04-15T16:49:34.529Z,105.50
2023-04-15T16:52:01.038Z,89.63
2023-04-15T16:54:27.536Z,77.22
2023-04-15T16:56:54.071Z,71.70
2023-04-15T16:59:20.546Z,73.05
2023-04-15T17:01:47.073Z,82.05
2023-04-15T17:04:13.717Z,119.57
2023-04-15T17:06:40.324Z,97.90
2023-04-15T17:09:07.152Z,83.65
2023-04-15T17:11:33.850Z,70.57
2023-04-15T17:14:00.461Z,71.05
2023-04-15T17:16:26.963Z,64.97
2023-04-15T17:18:53.628Z,61.60
2023-04-15T17:21:20.081Z,64.05
2023-04-15T17:23:46.599Z,57.38
2023-04-15T17:26:13.158Z,57.25
2023-04-15T17:28:39.664Z,51.00
2023-04-15T17:31:06.325Z,51.65
2023-04-15T17:34:00.796Z,55.88
2023-04-15T17:36:19.443Z,54.05
2023-04-15T17:38:45.949Z,54.78
2023-04-15T17:41:12.635Z,58.40
2023-04-15T17:43:39.122Z,60.25
2023-04-15T17:46:07.298Z,57.45
2023-04-15T17:48:34.384Z,83.63
2023-04-15T17:51:00.891Z,76.05
2023-04-15T17:53:27.517Z,132.25
2023-04-15T17:55:54.029Z,123.40
2023-04-15T17:58:20.509Z,294.70
2023-04-15T18:00:47.336Z,227.18
2023-04-15T18:03:14.332Z,218.95
2023-04-15T18:05:42.678Z,183.43
2023-04-15T18:08:09.859Z,161.23
2023-04-15T18:10:36.915Z,158.73
2023-04-15T18:13:03.469Z,166.43
2023-04-15T18:15:33.358Z,183.80
2023-04-15T18:18:00.253Z,176.18
2023-04-15T18:22:53.308Z,203.57
2023-04-15T18:25:19.815Z,195.40
2023-04-15T18:27:46.348Z,180.55
2023-04-15T18:30:13.211Z,176.68
2023-04-15T18:32:39.934Z,178.10
2023-04-15T18:35:07.059Z,175.32
2023-04-15T18:37:33.688Z,235.95
2023-04-15T18:40:00.185Z,253.20
2023-04-15T18:42:26.731Z,207.68
2023-04-15T18:44:53.571Z,201.65
2023-04-15T18:47:20.194Z,203.05
2023-04-15T18:49:46.753Z,218.70
2023-04-15T18:52:13.300Z,190.70
2023-04-15T18:54:39.810Z,114.57
2023-04-15T18:57:06.489Z,97.53
2023-04-15T18:59:33.628Z,104.80
2023-04-15T19:02:00.600Z,119.40
2023-04-15T19:04:27.274Z,135.82
2023-04-15T19:06:53.940Z,112.97
2023-04-15T19:09:20.480Z,88.38
2023-04-15T19:11:46.966Z,62.25
2023-04-15T19:14:13.472Z,46.13
2023-04-15T19:16:40.009Z,27.77
2023-04-15T19:19:06.815Z,26.65
2023-04-15T19:24:00.678Z,40.17
2023-04-15T19:26:27.345Z,41.58
2023-04-15T19:28:53.943Z,39.75
2023-04-15T19:31:20.648Z,39.10
2023-04-15T19:33:47.201Z,40.88
2023-04-15T19:36:13.758Z,36.05
2023-04-15T19:38:40.363Z,42.13
2023-04-15T19:41:06.842Z,134.82
2023-04-15T19:43:33.382Z,71.63
2023-04-15T19:46:00.092Z,60.85
2023-04-15T19:48:26.703Z,50.33
2023-04-15T19:50:53.358Z,52.75
2023-04-15T19:53:19.995Z,48.22
2023-04-15T19:55:46.507Z,46.17
2023-04-15T19:58:13.012Z,45.60
2023-04-15T20:00:39.584Z,46.83
2023-04-15T20:03:06.283Z,58.15
2023-04-15T20:05:32.945Z,104.88
2023-04-15T20:08:00.930Z,90.28
2023-04-15T20:10:27.595Z,91.07
2023-04-15T20:12:54.101Z,97.22
2023-04-15T20:15:20.718Z,110.70
2023-04-15T20:17:47.381Z,93.15
2023-04-15T20:20:14.025Z,89.20
2023-04-15T20:22:40.619Z,107.25
2023-04-15T20:25:07.661Z,99.30
2023-04-15T20:30:00.611Z,64.97
2023-04-15T20:32:27.096Z,61.92
2023-04-15T20:34:53.911Z,54.88
2023-04-15T20:37:20.453Z,57.60
2023-04-15T20:39:46.946Z,53.03
2023-04-15T20:42:13.438Z,46.75
2023-04-15T20:44:40.142Z,40.45
2023-04-15T20:47:07.287Z,38.03
2023-04-15T20:49:37.989Z,33.67
2023-04-15T20:52:06.326Z,58.08
2023-04-15T20:54:32.906Z,67.90
2023-04-15T20:56:59.797Z,63.08
2023-04-15T20:59:26.341Z,66.38
2023-04-15T21:01:52.965Z,71.13
2023-04-15T21:04:19.821Z,63.67
2023-04-15T21:06:46.733Z,56.58
2023-04-15T21:09:13.631Z,41.25
2023-04-15T21:11:57.475Z,32.08
2023-04-15T21:14:26.695Z,32.35
2023-04-15T21:16:53.211Z,25.02
2023-04-15T21:19:19.735Z,26.80
2023-04-15T21:21:46.259Z,28.40
2023-04-15T21:24:12.761Z,28.13
2023-04-15T21:26:39.223Z,50.88
2023-04-15T21:29:07.843Z,48.13
2023-04-15T21:31:36.176Z,29.50
2023-04-15T21:34:02.720Z,30.70
2023-04-15T21:36:29.241Z,27.08
2023-04-15T21:38:55.784Z,26.00
2023-04-15T21:41:22.468Z,26.55
2023-04-15T21:43:49.038Z,33.60
2023-04-15T21:46:23.229Z,18.52
2023-04-15T21:48:53.402Z,20.90
2023-04-15T21:51:20.265Z,18.15
2023-04-15T21:53:47.050Z,20.05
2023-04-15T21:56:13.627Z,19.35
2023-04-15T21:58:40.308Z,21.15
2023-04-15T22:01:06.956Z,19.00
2023-04-15T22:03:34.663Z,18.67
2023-04-15T22:06:02.707Z,21.33
2023-04-15T22:08:30.129Z,22.27
2023-04-15T22:10:57.493Z,19.48
2023-04-15T22:13:23.988Z,22.13
2023-04-15T22:15:50.438Z,21.42
2023-04-15T22:18:16.953Z,20.20
2023-04-15T22:20:43.552Z,19.20
2023-04-15T22:23:10.079Z,18.02
2023-04-15T22:25:37.418Z,22.35
2023-04-15T22:28:05.601Z,20.75
2023-04-15T22:30:32.509Z,19.38
2023-04-15T22:32:59.084Z,19.65
2023-04-15T22:35:25.683Z,21.08
2023-04-15T22:37:52.670Z,21.15
2023-04-15T22:40:19.269Z,22.70
2023-04-15T22:42:46.056Z,26.67
2023-04-15T22:45:12.562Z,28.42
2023-04-15T22:47:39.116Z,29.80
2023-04-15T22:50:06.562Z,34.47
2023-04-15T22:52:33.062Z,26.65
2023-04-15T22:54:59.672Z,19.55
2023-04-15T22:57:26.277Z,19.95
2023-04-15T22:59:52.813Z,16.27
2023-04-15T23:02:19.582Z,20.45
2023-04-15T23:04:46.505Z,28.10
2023-04-15T23:07:13.040Z,37.72
2023-04-15T23:09:39.801Z,30.13
2023-04-15T23:12:06.689Z,52.92
2023-04-15T23:14:33.202Z,46.05
2023-04-15T23:16:59.674Z,31.85
2023-04-15T23:19:26.213Z,36.30
2023-04-15T23:21:54.129Z,26.30
2023-04-15T23:24:20.661Z,36.55
2023-04-15T23:26:47.245Z,27.67
2023-04-15T23:29:13.794Z,22.65
2023-04-15T23:31:40.441Z,24.13
2023-04-15T23:34:07.034Z,23.77
2023-04-15T23:36:33.515Z,21.85
2023-04-15T23:39:00.212Z,23.75
2023-04-15T23:41:26.832Z,25.83
2023-04-15T23:43:53.311Z,23.92
2023-04-15T23:46:19.909Z,26.85
2023-04-15T23:48:46.445Z,23.33
2023-04-15T23:51:12.965Z,25.08
2023-04-15T23:53:39.494Z,49.13
2023-04-15T23:56:06.253Z,28.30
2023-04-15T23:58:34.476Z,24.73
